Time;durP1;ratioP1;P1;durP2;ratioP2;P2;SDS_P1;SDS_P2;PMS_P1;PMS_P2;Temp;Humidity;BMP_temperature;BMP_pressure;BME280_temperature;BME280_humidity;BME280_pressure;Samples;Min_cycle;Max_cycle;Signal;HPM_P1;HPM_P2
2022/06/30 00:00:21;;;;;;;6.50;4.50;;;;;;;24.92;100.00;99960.81;5113714;28;20322;-70
2022/06/30 00:02:48;;;;;;;7.32;4.38;;;;;;;24.95;100.00;99961.53;5113748;28;20193;-70
2022/06/30 00:05:15;;;;;;;21.90;7.25;;;;;;;24.72;100.00;99959.06;5113517;28;20205;-70
2022/06/30 00:07:43;;;;;;;9.10;6.88;;;;;;;24.64;100.00;99953.22;5113538;28;20198;-71
2022/06/30 00:10:11;;;;;;;13.32;8.32;;;;;;;24.29;100.00;99882.34;5077945;28;20716;-70
2022/06/30 00:12:38;;;;;;;21.00;9.80;;;;;;;24.69;100.00;99948.56;5113311;28;20229;-70
2022/06/30 00:15:06;;;;;;;6.20;4.78;;;;;;;24.79;100.00;99955.19;5113842;28;20594;-70
2022/06/30 00:17:33;;;;;;;15.75;9.68;;;;;;;24.74;100.00;99957.19;5113565;28;20200;-70
2022/06/30 00:20:01;;;;;;;5.95;5.22;;;;;;;24.76;100.00;99952.66;5113055;28;20193;-70
2022/06/30 00:22:28;;;;;;;15.88;4.50;;;;;;;24.72;100.00;99948.44;5075462;28;20676;-70
2022/06/30 00:24:54;;;;;;;11.88;6.25;;;;;;;24.74;100.00;99962.47;5113386;28;20673;-70
2022/06/30 00:27:23;;;;;;;23.45;8.13;;;;;;;24.64;100.00;99966.47;5112960;28;20224;-70
2022/06/30 00:29:49;;;;;;;8.18;4.63;;;;;;;24.56;100.00;99944.72;5113342;28;20562;-70
2022/06/30 00:32:16;;;;;;;7.63;4.38;;;;;;;24.69;100.00;99965.31;5112836;28;20197;-70
2022/06/30 00:34:43;;;;;;;11.88;4.70;;;;;;;24.63;100.00;99959.44;5112055;28;20201;-70
2022/06/30 00:37:10;;;;;;;9.10;4.18;;;;;;;24.64;100.00;99974.44;5113215;27;20205;-70
2022/06/30 00:39:37;;;;;;;5.75;4.32;;;;;;;24.59;100.00;99968.47;5113063;28;20205;-70
2022/06/30 00:42:05;;;;;;;6.18;4.65;;;;;;;24.57;100.00;99957.06;5112876;28;20713;-71
2022/06/30 00:44:34;;;;;;;7.40;4.38;;;;;;;24.38;100.00;99921.69;5079123;28;20197;-70
2022/06/30 00:47:01;;;;;;;8.18;3.83;;;;;;;24.54;100.00;99965.16;5112881;28;20217;-70
2022/06/30 00:49:29;;;;;;;14.18;4.40;;;;;;;24.55;100.00;99966.88;5112441;28;20209;-69
2022/06/30 00:51:56;;;;;;;6.22;4.22;;;;;;;24.55;100.00;99962.44;5112528;28;20225;-70
2022/06/30 00:54:25;;;;;;;7.40;3.92;;;;;;;24.63;100.00;99959.44;5112957;28;20210;-70
2022/06/30 00:56:53;;;;;;;6.35;4.43;;;;;;;24.65;100.00;99960.22;5112459;28;20209;-70
2022/06/30 00:59:22;;;;;;;5.22;4.00;;;;;;;24.53;100.00;99936.91;5112714;28;20198;-70
2022/06/30 01:01:51;;;;;;;4.03;3.63;;;;;;;24.63;100.00;99957.66;5112358;28;20213;-70
2022/06/30 01:04:19;;;;;;;5.85;4.13;;;;;;;24.22;100.00;99886.19;5112493;28;20205;-70
2022/06/30 01:06:47;;;;;;;11.27;4.57;;;;;;;24.56;100.00;99963.28;5112234;28;20200;-70
2022/06/30 01:12:41;;;;;;;13.27;4.70;;;;;;;24.44;100.00;99943.47;5111971;28;20200;-69
2022/06/30 01:14:47;;;;;;;12.10;4.72;;;;;;;24.46;100.00;99946.94;5111885;28;20290;-70
2022/06/30 01:17:15;;;;;;;6.53;4.03;;;;;;;24.12;100.00;99880.38;5112232;28;20208;-70
2022/06/30 01:19:53;;;;;;;11.00;4.82;;;;;;;24.57;100.00;99954.41;5111900;28;20185;-70
2022/06/30 01:22:21;;;;;;;13.80;4.30;;;;;;;24.58;100.00;99958.78;5111501;28;20232;-70
2022/06/30 01:24:48;;;;;;;9.77;4.72;;;;;;;24.51;100.00;99954.66;5103188;28;20201;-70
2022/06/30 01:27:15;;;;;;;7.40;4.55;;;;;;;24.46;100.00;99957.53;5112107;28;20661;-70
2022/06/30 01:29:42;;;;;;;9.20;3.97;;;;;;;24.45;100.00;99950.50;5111954;28;20197;-70
2022/06/30 01:32:09;;;;;;;7.93;3.97;;;;;;;24.37;100.00;99942.03;5112023;28;20202;-70
2022/06/30 01:34:36;;;;;;;8.75;4.43;;;;;;;24.38;100.00;99946.41;5111391;28;20198;-70
2022/06/30 01:37:04;;;;;;;16.48;4.68;;;;;;;24.34;100.00;99957.19;5112133;28;20878;-70
2022/06/30 01:39:32;;;;;;;8.07;4.55;;;;;;;24.38;100.00;99953.50;5092893;28;20202;-70
2022/06/30 01:41:59;;;;;;;11.68;4.50;;;;;;;24.18;100.00;99925.22;5092509;28;20221;-70
2022/06/30 01:44:26;;;;;;;11.10;4.50;;;;;;;24.18;100.00;99936.69;5111579;28;20204;-70
2022/06/30 01:46:53;;;;;;;6.20;4.57;;;;;;;24.21;100.00;99934.81;5075707;28;20235;-70
2022/06/30 01:49:20;;;;;;;9.52;4.72;;;;;;;24.23;100.00;99940.91;5092593;28;20669;-70
2022/06/30 01:51:47;;;;;;;10.48;4.28;;;;;;;24.19;100.00;99937.50;5096634;28;20212;-70
2022/06/30 01:54:14;;;;;;;6.30;5.00;;;;;;;24.22;100.00;99941.84;5111480;28;20206;-70
2022/06/30 01:56:42;;;;;;;7.57;4.43;;;;;;;24.16;100.00;99927.91;5088899;28;20736;-70
2022/06/30 01:59:09;;;;;;;10.85;4.90;;;;;;;24.05;100.00;99935.44;5091556;28;20215;-70
2022/06/30 02:01:36;;;;;;;8.38;5.47;;;;;;;24.09;100.00;99947.63;5094328;28;20214;-70
2022/06/30 02:06:45;;;;;;;10.77;6.00;;;;;;;23.95;100.00;99936.75;5110971;28;20276;-69
2022/06/30 02:09:12;;;;;;;22.30;6.32;;;;;;;23.57;100.00;99853.63;5111006;28;20202;-71
2022/06/30 02:11:43;;;;;;;15.00;6.18;;;;;;;24.07;100.00;99928.28;5095104;28;20198;-69
2022/06/30 02:14:09;;;;;;;15.10;6.45;;;;;;;24.04;100.00;99928.41;5111244;28;20189;-70
2022/06/30 02:16:36;;;;;;;17.40;5.60;;;;;;;24.08;100.00;99930.00;5111518;28;20654;-70
2022/06/30 02:19:04;;;;;;;15.30;5.80;;;;;;;24.08;100.00;99931.78;5111668;28;20202;-70
2022/06/30 02:21:30;;;;;;;11.20;5.88;;;;;;;24.06;100.00;99937.16;5110932;28;20668;-69
2022/06/30 02:23:57;;;;;;;12.18;6.30;;;;;;;23.90;100.00;99914.88;5110601;28;20670;-69
2022/06/30 02:26:24;;;;;;;9.57;5.72;;;;;;;23.99;100.00;99932.19;5110996;28;20201;-70
2022/06/30 02:28:52;;;;;;;7.38;5.65;;;;;;;23.91;100.00;99916.59;5110701;28;20208;-69
2022/06/30 02:31:19;;;;;;;8.50;5.25;;;;;;;23.86;100.00;99926.56;5090843;28;20213;-69
2022/06/30 02:33:46;;;;;;;11.95;5.03;;;;;;;23.73;100.00;99921.81;5110664;28;20556;-70
2022/06/30 02:36:13;;;;;;;11.10;5.30;;;;;;;23.52;100.00;99929.72;5111288;28;20215;-69
2022/06/30 02:38:40;;;;;;;7.35;5.18;;;;;;;23.51;100.00;99927.97;5075208;28;20258;-70
2022/06/30 02:41:06;;;;;;;13.32;5.82;;;;;;;23.43;100.00;99924.78;5111168;28;20643;-69
2022/06/30 02:43:33;;;;;;;10.15;5.00;;;;;;;23.44;100.00;99910.63;5109951;28;20201;-69
2022/06/30 02:46:01;;;;;;;9.75;5.90;;;;;;;23.54;100.00;99922.56;5110665;28;20204;-70
2022/06/30 02:48:28;;;;;;;20.70;6.15;;;;;;;23.52;100.00;99918.25;5092223;28;20918;-69
2022/06/30 02:50:55;;;;;;;18.15;6.05;;;;;;;23.55;100.00;99923.41;5110923;28;20208;-69
2022/06/30 02:53:23;;;;;;;10.88;6.53;;;;;;;23.65;100.00;99924.78;5110977;28;20669;-68
2022/06/30 02:55:50;;;;;;;15.00;5.57;;;;;;;23.61;100.00;99929.34;5110935;28;20284;-68
2022/06/30 02:58:17;;;;;;;13.82;5.47;;;;;;;23.70;100.00;99928.09;5113494;28;20205;-68
2022/06/30 03:00:44;;;;;;;11.20;7.05;;;;;;;23.67;100.00;99925.56;5114504;28;20227;-67
2022/06/30 03:03:12;;;;;;;13.02;6.82;;;;;;;23.78;100.00;99930.44;5113858;28;20586;-69
2022/06/30 03:05:39;;;;;;;12.27;5.85;;;;;;;23.61;100.00;99910.81;5114092;28;20665;-76
2022/06/30 03:08:06;;;;;;;10.85;5.82;;;;;;;23.85;100.00;99927.47;5094663;28;20198;-69
2022/06/30 03:10:33;;;;;;;11.85;6.15;;;;;;;23.88;100.00;99919.38;5094489;28;20205;-69
2022/06/30 03:12:59;;;;;;;11.23;5.75;;;;;;;23.96;100.00;99905.81;5108078;28;20285;-69
2022/06/30 03:15:26;;;;;;;10.27;5.38;;;;;;;24.38;100.00;99916.38;5113103;28;20206;-69
2022/06/30 03:17:53;;;;;;;14.32;6.00;;;;;;;24.89;100.00;99922.03;5114420;28;20197;-70
2022/06/30 03:20:21;;;;;;;13.90;5.70;;;;;;;25.47;100.00;99929.91;5114471;28;20193;-71
2022/06/30 03:22:48;;;;;;;11.52;5.57;;;;;;;25.69;100.00;99922.63;5114374;28;20209;-70
2022/06/30 03:25:15;;;;;;;13.32;5.75;;;;;;;26.41;100.00;99939.31;5114779;28;20193;-71
2022/06/30 03:27:42;;;;;;;11.38;5.90;;;;;;;26.79;100.00;99941.78;5114368;28;20197;-68
2022/06/30 03:30:10;;;;;;;11.38;5.43;;;;;;;27.10;100.00;99942.72;5114432;28;20229;-68
2022/06/30 03:32:37;;;;;;;9.07;5.28;;;;;;;27.42;100.00;99940.06;5094375;28;20198;-68
2022/06/30 03:35:05;;;;;;;10.10;5.10;;;;;;;27.94;97.81;99949.47;5114333;28;20197;-68
2022/06/30 03:37:33;;;;;;;11.38;5.65;;;;;;;28.12;95.54;99944.03;5113902;28;20185;-69
2022/06/30 03:40:00;;;;;;;8.43;5.57;;;;;;;28.18;91.84;99951.69;5077843;28;20189;-68
2022/06/30 03:42:27;;;;;;;19.77;6.30;;;;;;;28.00;90.50;99956.28;5113782;28;20726;-68
2022/06/30 03:44:54;;;;;;;14.57;6.03;;;;;;;28.32;88.00;99954.41;5114093;28;20193;-68
2022/06/30 03:47:21;;;;;;;17.80;5.70;;;;;;;28.61;87.04;99966.81;5114188;28;20205;-69
2022/06/30 03:49:47;;;;;;;14.02;6.38;;;;;;;29.27;83.57;99974.31;5113687;28;20189;-68
2022/06/30 03:52:14;;;;;;;20.17;6.68;;;;;;;29.26;82.19;99970.78;5093403;28;20200;-68
2022/06/30 03:54:42;;;;;;;10.88;6.05;;;;;;;29.43;82.62;99972.41;5114067;28;20197;-69
2022/06/30 03:57:09;;;;;;;7.95;5.43;;;;;;;29.58;80.82;99960.69;5114005;28;20197;-69
2022/06/30 03:59:37;;;;;;;16.75;5.72;;;;;;;29.80;76.84;99965.50;5113851;28;20201;-69
2022/06/30 04:02:04;;;;;;;12.60;6.55;;;;;;;30.38;73.03;99974.03;5095051;28;20248;-69
2022/06/30 04:04:32;;;;;;;12.45;6.03;;;;;;;30.45;67.87;99995.91;5113892;28;20691;-69
2022/06/30 04:06:59;;;;;;;13.35;6.10;;;;;;;30.88;64.92;100000.03;5113741;28;20559;-69
2022/06/30 04:09:26;;;;;;;16.08;6.20;;;;;;;31.31;63.62;99997.88;5113385;28;20205;-69
2022/06/30 04:11:54;;;;;;;12.93;6.47;;;;;;;31.57;61.14;100004.03;5113697;28;20737;-69
2022/06/30 04:14:21;;;;;;;19.25;6.90;;;;;;;31.16;59.15;100004.31;5113785;28;20193;-69
2022/06/30 04:16:48;;;;;;;12.82;6.45;;;;;;;31.56;58.76;100006.84;5113539;28;20325;-69
2022/06/30 04:19:15;;;;;;;9.10;6.10;;;;;;;31.85;57.70;100008.25;5077661;28;20205;-69
2022/06/30 04:21:42;;;;;;;13.70;6.13;;;;;;;31.71;57.37;100017.31;5113503;28;20225;-69
2022/06/30 04:24:08;;;;;;;11.52;6.03;;;;;;;31.69;56.72;100002.28;5113492;28;20688;-69
2022/06/30 04:26:35;;;;;;;10.27;6.68;;;;;;;32.22;55.83;100006.34;5076118;28;20189;-69
2022/06/30 04:29:03;;;;;;;18.63;6.30;;;;;;;32.39;54.47;99990.69;5112313;28;20201;-69
2022/06/30 04:34:15;;;;;;;21.55;6.20;;;;;;;31.96;55.16;99990.34;5112880;28;20591;-69
2022/06/30 04:36:41;;;;;;;13.05;6.80;;;;;;;32.23;55.08;99992.84;5076712;28;20208;-70
2022/06/30 04:39:08;;;;;;;13.73;6.68;;;;;;;32.40;54.13;100004.97;5112800;28;20191;-69
2022/06/30 04:41:36;;;;;;;12.55;6.65;;;;;;;33.04;53.48;100008.03;5112791;28;20268;-69
2022/06/30 04:44:05;;;;;;;17.52;6.30;;;;;;;33.07;52.18;100010.50;5112899;28;20197;-69
2022/06/30 04:46:32;;;;;;;11.18;5.95;;;;;;;33.65;50.79;100002.19;5112566;28;20204;-67
2022/06/30 04:48:59;;;;;;;12.25;6.45;;;;;;;33.85;49.85;99987.13;5093895;28;20193;-68
2022/06/30 04:51:26;;;;;;;41.85;23.63;;;;;;;33.88;48.56;99912.38;5111518;28;20640;-68
2022/06/30 04:53:53;;;;;;;29.80;16.88;;;;;;;34.73;47.81;100011.97;5075847;28;20197;-68
2022/06/30 04:56:21;;;;;;;74.68;35.13;;;;;;;34.89;47.28;100011.50;5112890;28;20676;-68
2022/06/30 04:58:48;;;;;;;15.38;7.05;;;;;;;34.70;47.07;100009.53;5111884;28;20201;-68
2022/06/30 05:01:16;;;;;;;15.25;6.82;;;;;;;35.18;47.05;100012.50;5109993;28;20669;-68
2022/06/30 05:03:43;;;;;;;20.00;8.45;;;;;;;35.41;46.24;100014.03;5090301;28;20248;-68
2022/06/30 05:06:10;;;;;;;31.52;9.20;;;;;;;34.89;46.38;100012.34;5112439;28;20201;-68
2022/06/30 05:08:37;;;;;;;36.53;10.30;;;;;;;35.23;46.84;100012.97;5098815;28;20213;-68
2022/06/30 05:11:04;;;;;;;60.85;13.82;;;;;;;35.09;46.51;100013.31;5091911;28;20669;-69
2022/06/30 05:13:31;;;;;;;50.80;13.13;;;;;;;34.56;47.36;100005.31;5094935;28;20197;-68
2022/06/30 05:15:58;;;;;;;31.35;12.35;;;;;;;34.67;47.60;100028.66;5104717;28;20219;-68
2022/06/30 05:18:27;;;;;;;43.80;12.15;;;;;;;34.27;47.70;99939.63;5094668;28;20201;-68
2022/06/30 05:20:54;;;;;;;59.53;12.98;;;;;;;34.08;49.61;100036.31;5099332;28;20228;-68
2022/06/30 05:23:21;;;;;;;44.42;11.00;;;;;;;34.23;49.76;100035.09;5091858;28;20225;-68
2022/06/30 05:28:32;;;;;;;36.83;9.73;;;;;;;34.29;49.26;100034.56;5093103;28;20826;-66
2022/06/30 05:30:59;;;;;;;35.42;9.10;;;;;;;34.24;49.13;100020.66;5091201;28;20221;-67
2022/06/30 05:33:27;;;;;;;21.58;8.23;;;;;;;34.15;48.33;100026.78;5091321;28;20194;-68
2022/06/30 05:35:55;;;;;;;22.05;8.32;;;;;;;34.67;47.65;100045.69;5091308;28;20560;-67
2022/06/30 05:38:22;;;;;;;28.10;8.57;;;;;;;33.45;48.93;99976.06;5109232;28;20205;-67
2022/06/30 05:40:49;;;;;;;16.17;8.07;;;;;;;33.50;49.92;100046.44;5096859;28;20588;-67
2022/06/30 05:43:16;;;;;;;26.77;8.18;;;;;;;33.61;50.32;100043.75;5100312;28;20222;-67
2022/06/30 05:45:46;;;;;;;19.13;8.23;;;;;;;33.24;51.86;100043.16;5090613;28;20198;-67
2022/06/30 05:48:13;;;;;;;22.63;7.43;;;;;;;33.82;50.77;100023.19;5100415;28;20229;-67
2022/06/30 05:50:41;;;;;;;25.75;7.63;;;;;;;34.42;49.84;100029.88;5059426;28;20224;-67
2022/06/30 05:53:08;;;;;;;21.90;9.00;;;;;;;34.56;49.57;100037.63;5090788;28;20213;-67
2022/06/30 05:55:34;;;;;;;18.83;7.03;;;;;;;34.64;48.88;100045.94;5090823;28;20201;-67
2022/06/30 05:58:03;;;;;;;27.15;7.07;;;;;;;34.33;49.07;100031.50;5090779;28;20201;-67
2022/06/30 06:00:32;;;;;;;25.52;7.43;;;;;;;33.63;50.55;100049.91;5090620;28;20233;-67
2022/06/30 06:02:59;;;;;;;42.65;7.18;;;;;;;33.55;51.04;100057.69;5090667;28;20232;-67
2022/06/30 06:05:26;;;;;;;31.20;7.20;;;;;;;33.82;51.96;100052.78;5090489;28;20202;-67
2022/06/30 06:07:54;;;;;;;16.00;6.38;;;;;;;33.12;51.94;100065.63;5090657;28;20200;-67
2022/06/30 06:10:21;;;;;;;25.08;6.57;;;;;;;32.96;52.62;100070.47;5090624;28;20201;-67
2022/06/30 06:12:48;;;;;;;15.35;6.60;;;;;;;32.53;53.04;100062.13;5090387;28;20576;-67
2022/06/30 06:15:16;;;;;;;19.15;5.97;;;;;;;32.64;53.43;100061.34;5090612;28;20262;-67
2022/06/30 06:17:44;;;;;;;23.05;6.03;;;;;;;33.16;52.82;100066.25;5090403;28;20194;-67
2022/06/30 06:20:13;;;;;;;18.13;6.20;;;;;;;33.39;51.95;100054.53;5090489;28;20205;-67
2022/06/30 06:22:40;;;;;;;10.45;6.38;;;;;;;32.47;53.04;100038.41;5090314;28;20236;-67
2022/06/30 06:25:09;;;;;;;25.13;6.22;;;;;;;33.00;52.79;100030.78;5090440;28;20629;-67
2022/06/30 06:27:37;;;;;;;16.48;6.82;;;;;;;32.50;53.37;100032.81;5090332;28;20271;-67
2022/06/30 06:30:04;;;;;;;15.02;6.28;;;;;;;32.55;53.95;100041.38;5090359;28;20290;-67
2022/06/30 06:32:31;;;;;;;17.45;6.57;;;;;;;31.52;59.39;100049.09;5091334;28;20209;-66
2022/06/30 06:34:59;;;;;;;14.13;5.88;;;;;;;32.21;57.65;100055.66;5094675;28;20204;-66
2022/06/30 06:37:26;;;;;;;16.80;7.00;;;;;;;31.87;57.44;100050.06;5094281;28;20622;-67
2022/06/30 06:39:52;;;;;;;13.48;6.07;;;;;;;31.67;60.60;100045.31;5075233;28;20201;-67
2022/06/30 06:42:21;;;;;;;21.27;6.47;;;;;;;31.91;60.50;100051.56;5094494;28;20229;-67
2022/06/30 06:44:48;;;;;;;17.77;6.40;;;;;;;31.78;58.80;100023.94;5094450;28;20193;-67
2022/06/30 06:47:16;;;;;;;23.27;6.18;;;;;;;31.79;60.01;100047.09;5094119;28;20578;-67
2022/06/30 06:49:43;;;;;;;22.42;6.43;;;;;;;31.42;61.74;100056.91;5094141;28;20254;-67
2022/06/30 06:52:10;;;;;;;31.30;6.90;;;;;;;31.45;62.05;100053.16;5094160;28;20224;-67
2022/06/30 06:54:37;;;;;;;28.13;5.95;;;;;;;31.20;62.07;100053.19;5075212;28;20201;-67
2022/06/30 06:57:04;;;;;;;23.45;5.80;;;;;;;31.15;62.80;100050.81;5094158;28;20205;-67
2022/06/30 06:59:34;;;;;;;21.23;6.40;;;;;;;30.86;62.64;100039.41;5094137;28;20193;-67
2022/06/30 07:02:01;;;;;;;24.58;6.00;;;;;;;30.72;64.74;100047.56;5075366;28;20205;-67
2022/06/30 07:04:27;;;;;;;19.80;6.07;;;;;;;30.93;67.67;100043.38;5093963;28;20197;-67
2022/06/30 07:06:54;;;;;;;18.35;6.28;;;;;;;30.61;65.94;100031.38;5075045;28;20194;-67
2022/06/30 07:09:21;;;;;;;29.52;7.68;;;;;;;30.71;67.01;100029.78;5093797;28;20198;-67
2022/06/30 07:11:49;;;;;;;23.35;6.60;;;;;;;30.90;66.18;100035.56;5093776;28;20209;-67
2022/06/30 07:14:16;;;;;;;21.15;6.05;;;;;;;30.61;65.37;100036.72;5093847;28;20684;-67
2022/06/30 07:16:44;;;;;;;9.02;5.72;;;;;;;30.96;64.77;100037.81;5093738;28;20594;-67
2022/06/30 07:19:11;;;;;;;22.15;6.22;;;;;;;30.98;64.20;100038.63;5093811;28;20276;-67
2022/06/30 07:21:37;;;;;;;25.08;6.18;;;;;;;30.97;64.09;100030.66;5093528;28;20688;-67
2022/06/30 07:24:05;;;;;;;14.48;6.00;;;;;;;30.79;64.88;100032.78;5074302;28;20213;-68
2022/06/30 07:26:31;;;;;;;26.73;6.38;;;;;;;30.95;65.03;100029.91;5093510;28;20198;-67
2022/06/30 07:28:58;;;;;;;26.95;5.82;;;;;;;30.93;64.79;100030.00;5093301;28;20235;-67
2022/06/30 07:31:25;;;;;;;12.75;5.88;;;;;;;31.28;62.70;100034.75;5093178;28;20229;-67
2022/06/30 07:33:53;;;;;;;22.58;6.10;;;;;;;31.33;65.58;100032.56;5093497;28;20208;-67
2022/06/30 07:36:20;;;;;;;24.27;5.82;;;;;;;31.49;60.82;100027.84;5057647;28;20205;-67
2022/06/30 07:38:49;;;;;;;22.45;5.47;;;;;;;31.45;62.31;100032.56;5093451;28;20661;-67
2022/06/30 07:41:16;;;;;;;14.27;5.20;;;;;;;31.48;60.46;100015.41;5093053;28;20193;-67
2022/06/30 07:43:43;;;;;;;12.88;5.22;;;;;;;31.62;61.90;100025.16;5057043;28;20221;-67
2022/06/30 07:46:10;;;;;;;10.43;5.55;;;;;;;31.81;59.88;100039.81;5093314;28;20339;-67
2022/06/30 07:48:37;;;;;;;19.67;4.90;;;;;;;31.76;58.70;100031.22;5093054;28;20190;-67
2022/06/30 07:51:06;;;;;;;9.95;4.35;;;;;;;31.99;57.69;100036.72;5108822;28;20200;-68
2022/06/30 07:53:33;;;;;;;6.65;4.75;;;;;;;31.87;58.67;100038.47;5113106;28;20205;-67
2022/06/30 07:56:00;;;;;;;9.73;4.68;;;;;;;31.83;58.03;100042.34;5113326;28;20197;-70
2022/06/30 07:58:27;;;;;;;7.47;4.20;;;;;;;31.87;57.64;100036.66;5113175;28;20204;-68
2022/06/30 08:00:53;;;;;;;9.65;5.25;;;;;;;31.86;55.95;100037.63;5112800;28;20207;-68
2022/06/30 08:03:20;;;;;;;8.15;4.30;;;;;;;31.74;56.85;100022.44;5113424;28;20220;-68
2022/06/30 08:05:47;;;;;;;8.80;4.70;;;;;;;31.60;54.68;100024.41;5113425;28;20200;-66
2022/06/30 08:08:15;;;;;;;11.38;4.53;;;;;;;31.81;54.59;100033.56;5094079;28;20201;-68
2022/06/30 08:10:42;;;;;;;14.75;5.35;;;;;;;31.96;55.08;100033.28;5112975;28;20205;-68
2022/06/30 08:13:09;;;;;;;10.30;4.72;;;;;;;32.06;53.66;100032.66;5077331;28;20200;-68
2022/06/30 08:15:36;;;;;;;13.30;5.13;;;;;;;32.17;55.65;100028.19;5113051;28;20193;-68
2022/06/30 08:18:03;;;;;;;8.15;4.13;;;;;;;31.84;51.14;100038.72;5112604;28;20684;-68
2022/06/30 08:20:30;;;;;;;8.00;4.40;;;;;;;31.95;54.49;100034.28;5113053;28;20600;-68
2022/06/30 08:22:57;;;;;;;5.97;4.20;;;;;;;32.01;51.29;100034.78;5112498;28;20612;-69
2022/06/30 08:25:25;;;;;;;6.75;4.00;;;;;;;32.17;52.69;100025.50;5112691;28;20200;-67
2022/06/30 08:27:53;;;;;;;5.72;4.53;;;;;;;32.13;50.08;100026.72;5113000;28;20208;-67
2022/06/30 08:30:20;;;;;;;5.07;4.00;;;;;;;32.34;50.54;100021.53;5112245;28;20240;-67
2022/06/30 08:32:47;;;;;;;12.25;4.22;;;;;;;32.46;50.26;100031.38;5112728;28;20673;-67
2022/06/30 08:35:14;;;;;;;14.70;4.45;;;;;;;32.62;49.96;100034.59;5112669;28;20278;-68
2022/06/30 08:37:41;;;;;;;9.45;4.50;;;;;;;32.59;48.97;100018.72;5112530;28;20277;-67
2022/06/30 08:42:54;;;;;;;7.43;4.05;;;;;;;32.64;47.78;100026.44;5069353;28;20275;-68
2022/06/30 08:45:24;;;;;;;5.93;4.30;;;;;;;32.28;48.31;100022.03;5069378;28;20213;-66
2022/06/30 08:47:51;;;;;;;5.97;4.18;;;;;;;32.56;48.86;100036.88;5069235;28;20205;-67
2022/06/30 08:50:19;;;;;;;8.57;4.15;;;;;;;32.68;50.18;100031.44;5069411;28;20206;-69
2022/06/30 08:52:47;;;;;;;8.63;3.90;;;;;;;32.77;47.48;100037.94;5069196;28;20190;-68
2022/06/30 08:55:15;;;;;;;7.97;3.95;;;;;;;32.70;47.27;100040.25;5068446;28;20202;-68
2022/06/30 08:57:43;;;;;;;7.38;4.20;;;;;;;32.34;48.00;100014.34;5068877;28;20205;-66
2022/06/30 09:00:13;;;;;;;8.95;4.28;;;;;;;32.33;48.53;100018.00;5069082;28;20198;-67
2022/06/30 09:02:40;;;;;;;6.72;3.80;;;;;;;32.71;48.11;100033.88;5068277;28;20195;-67
2022/06/30 09:05:08;;;;;;;6.57;4.18;;;;;;;32.62;48.21;100021.19;5069235;28;20209;-67
2022/06/30 09:07:35;;;;;;;7.05;4.60;;;;;;;32.38;48.81;100033.78;5068632;28;20209;-68
2022/06/30 09:10:02;;;;;;;12.52;4.13;;;;;;;32.38;48.35;100031.09;5068805;28;20601;-68
2022/06/30 09:12:29;;;;;;;6.32;4.15;;;;;;;32.10;48.57;100001.94;5068645;28;20202;-67
2022/06/30 09:14:56;;;;;;;5.65;4.28;;;;;;;32.00;48.86;100019.66;5068949;28;20198;-67
2022/06/30 09:17:27;;;;;;;8.45;4.45;;;;;;;32.49;48.93;100036.50;5069072;28;20599;-67
2022/06/30 09:19:57;;;;;;;4.85;4.38;;;;;;;32.64;46.85;100034.50;5086277;28;20196;-68
2022/06/30 09:22:26;;;;;;;5.18;4.38;;;;;;;32.58;46.39;100034.91;5111665;28;20205;-67
2022/06/30 09:25:00;;;;;;;7.28;4.15;;;;;;;32.44;46.60;100022.56;5111448;28;20231;-67
2022/06/30 09:27:29;;;;;;;5.22;4.15;;;;;;;32.44;47.14;100019.88;5092831;28;20769;-67
2022/06/30 09:30:00;;;;;;;5.00;3.63;;;;;;;32.58;46.30;100041.16;5111606;28;20240;-67
2022/06/30 09:32:28;;;;;;;5.55;3.67;;;;;;;32.50;45.51;100043.56;5111608;28;20228;-67
2022/06/30 09:35:09;;;;;;;8.60;4.38;;;;;;;32.65;46.02;100037.06;5111413;28;20284;-67
2022/06/30 09:37:36;;;;;;;6.53;4.05;;;;;;;32.48;45.09;100034.78;5111558;28;20743;-68
2022/06/30 09:40:03;;;;;;;4.22;3.83;;;;;;;32.60;45.43;100019.59;5111586;28;20200;-69
2022/06/30 09:42:48;;;;;;;7.32;4.15;;;;;;;32.60;43.96;100033.88;5111538;28;20197;-67
2022/06/30 09:45:32;;;;;;;9.88;3.63;;;;;;;32.77;45.16;100035.25;5111035;28;20220;-67
2022/06/30 09:48:01;;;;;;;8.27;3.90;;;;;;;32.99;44.79;100021.00;5111201;28;20197;-67
2022/06/30 09:50:28;;;;;;;3.75;3.42;;;;;;;33.31;44.54;100027.41;5111203;28;20204;-68
2022/06/30 09:53:06;;;;;;;6.15;3.80;;;;;;;33.28;43.29;100028.47;5111242;28;20197;-68
2022/06/30 09:55:45;;;;;;;10.38;3.42;;;;;;;33.24;41.58;100021.66;5111121;28;20240;-68
2022/06/30 09:58:14;;;;;;;5.57;3.78;;;;;;;32.87;42.24;100022.81;5109222;28;20200;-69
2022/06/30 10:00:46;;;;;;;5.10;3.80;;;;;;;32.92;41.48;100017.94;5107665;28;20738;-67
2022/06/30 10:03:16;;;;;;;4.13;3.38;;;;;;;33.22;42.67;100025.44;5101010;28;20201;-68
2022/06/30 10:05:44;;;;;;;7.70;4.30;;;;;;;33.00;42.42;100017.34;5111008;28;20208;-67
2022/06/30 10:08:12;;;;;;;4.97;3.33;;;;;;;33.19;41.55;100004.19;5110688;28;20200;-67
2022/06/30 10:10:40;;;;;;;6.40;3.40;;;;;;;33.29;41.14;100010.53;5110902;28;20204;-68
2022/06/30 10:13:12;;;;;;;3.55;3.25;;;;;;;33.38;40.58;100007.97;5110469;28;20201;-69
2022/06/30 10:15:40;;;;;;;4.50;3.33;;;;;;;33.57;41.08;100001.09;5097667;28;20329;-69
2022/06/30 10:18:09;;;;;;;7.22;3.67;;;;;;;33.72;40.88;99987.28;5111124;28;20208;-68
2022/06/30 10:20:39;;;;;;;8.23;3.88;;;;;;;33.57;40.68;99996.56;5110899;28;20192;-68
2022/06/30 10:23:08;;;;;;;7.32;4.30;;;;;;;33.75;41.84;99999.59;5075136;28;20204;-68
2022/06/30 10:25:35;;;;;;;4.20;3.70;;;;;;;33.68;39.17;99996.56;5110989;28;20632;-68
2022/06/30 10:28:03;;;;;;;12.35;3.40;;;;;;;33.72;41.43;99998.03;5110526;28;20185;-68
2022/06/30 10:30:42;;;;;;;7.82;3.30;;;;;;;33.94;40.22;99994.41;5110290;28;20236;-68
2022/06/30 10:33:14;;;;;;;6.10;3.72;;;;;;;33.66;40.04;99992.31;5110716;28;20226;-68
2022/06/30 10:35:48;;;;;;;4.10;3.28;;;;;;;33.93;41.11;99990.00;5110614;28;20189;-68
2022/06/30 10:38:30;;;;;;;5.28;3.80;;;;;;;33.87;41.14;99986.00;5110442;28;20282;-68
2022/06/30 10:41:04;;;;;;;3.63;3.33;;;;;;;34.01;40.53;99984.00;5110981;28;20204;-68
2022/06/30 10:43:31;;;;;;;4.30;3.30;;;;;;;34.11;39.23;99980.41;5111053;28;20227;-68
2022/06/30 10:46:00;;;;;;;5.10;3.10;;;;;;;34.07;37.86;99975.44;5110600;28;20657;-68
2022/06/30 10:48:48;;;;;;;5.18;2.80;;;;;;;34.15;39.16;99975.66;5110586;28;20212;-68
2022/06/30 10:51:17;;;;;;;3.90;3.30;;;;;;;34.59;38.81;99970.03;5108308;28;20204;-68
2022/06/30 10:53:55;;;;;;;11.48;4.07;;;;;;;34.64;37.54;99969.66;5110731;28;20269;-68
2022/06/30 10:56:23;;;;;;;6.25;3.72;;;;;;;34.73;38.31;99974.25;5085024;28;20190;-68
2022/06/30 10:59:11;;;;;;;4.03;3.38;;;;;;;34.29;36.87;99959.19;5090847;28;20198;-67
2022/06/30 11:01:39;;;;;;;9.10;3.00;;;;;;;34.22;36.00;99966.06;5099420;28;20628;-68
2022/06/30 11:04:06;;;;;;;3.85;3.40;;;;;;;34.22;36.53;99949.91;5110837;28;20233;-68
2022/06/30 11:07:00;;;;;;;4.63;2.97;;;;;;;34.25;37.71;99952.34;5091731;28;20196;-68
2022/06/30 11:10:06;;;;;;;4.15;2.95;;;;;;;34.31;36.37;99955.38;5111101;28;20661;-68
2022/06/30 11:12:56;;;;;;;12.52;3.60;;;;;;;34.56;35.54;99956.81;5111005;28;20220;-68
2022/06/30 11:15:26;;;;;;;5.93;3.50;;;;;;;34.45;37.96;99939.88;5110723;28;20203;-66
2022/06/30 11:17:54;;;;;;;8.20;3.45;;;;;;;34.35;38.01;99940.66;5111220;28;20192;-69
2022/06/30 11:20:21;;;;;;;3.85;3.40;;;;;;;34.68;38.62;99945.00;5114452;28;20189;-69
2022/06/30 11:22:50;;;;;;;8.48;3.55;;;;;;;34.32;38.54;99940.06;5114655;28;20218;-68
2022/06/30 11:28:05;;;;;;;4.90;3.40;;;;;;;34.56;38.92;99943.34;5051008;28;20233;-68
2022/06/30 11:30:35;;;;;;;9.23;3.67;;;;;;;34.59;38.56;99940.41;5050669;28;20238;-69
2022/06/30 11:33:03;;;;;;;7.03;3.90;;;;;;;34.78;38.82;99945.91;5050983;28;20206;-67
2022/06/30 11:35:30;;;;;;;5.15;3.35;;;;;;;34.80;40.50;99930.47;5051315;28;20199;-67
2022/06/30 11:37:58;;;;;;;5.13;3.53;;;;;;;35.03;39.33;99919.50;5050829;28;20718;-67
2022/06/30 11:40:25;;;;;;;10.73;3.38;;;;;;;34.84;37.96;99926.53;5050606;28;20203;-68
2022/06/30 11:42:53;;;;;;;4.72;3.40;;;;;;;34.95;37.94;99940.88;5050607;28;20198;-67